メインページ
METAR-TAF:

METAR-TAF

空港 :

イルクーツク, ロシア

イルクーツク国際空港

緯度: 52-16N, 経度: 104-19E, 海抜: 513m

現時点の気象観測

当レポートは33分前の16:00(UTC)に作成
の風 8kt
気温 16°C
湿度 72%
気圧 1009 hPa
視程10km以上
1,500メートル以下は雲なし、積乱雲なし

METAR: UIII 221600Z 18004MPS CAVOK 16/11 Q1009 R12/60D NOSIG RMK QFE714/0953

時間: 00:33 (16:33 UTC)

予報

当レポートは2時間33分前の14:00(UTC)に作成
予報は22日の 15時(UTC)から 23日の 15時(UTC)まで有効
変向風 2kt
視程10km以上
1,500メートル以下は雲なし、積乱雲なし
22日の 23時(UTC)から 23日の 01時(UTC)まで徐々に
の風 14kt

TAF: UIII 221400Z 2215/2315 VRB01MPS CAVOK BECMG 2223/2301 17007MPS

4,000以上の空港の気象観測と天気予報(METAR報とTAF報)

利用可能な観測所は地図上に黄色い丸と赤い丸で示す。

丸の上にカーソルを重ねると観測所名を参照できる。

次にクリックすると気象観測と天気予報を参照できる。

マップの切り替え:黒色「×」印の緑ボタンをクリックして拡大、「-」印の緑ボタンをクリックして縮小、緑色の三角印をクリックして隣りの地図に切り替え


METAR-TAF: